Nome, AK (99762)

4:40 AM AKDT on May 30, 2015 (GMT -0800)
NOS_NWLON | | Change Station
CLOSE
Current Station
Personal Weather Station
Location: Nome, AK
Elevation: 0 ft
Nearby Weather Stations

Elev 0 ft 64.50 °N, 165.43 °W | Updated 52 minutes ago

Overcast
Overcast
47 °F
Feels Like 45 °F
N
4
Wind Variable Wind from NW
Gusts 6.0 mph

Today
High -- | Low -- °F
--% Chance of Precip.
Yesterday
High -- | Low -- °F
Precip. -- in
4:55 AM 1:05 AM
Waxing Gibbous, 90% visible
Pressure 30.18 in
Visibility 10.0 miles
Clouds Overcast 7000 ft
Windchill 45 °F
Dew Point Not available.
Humidity Not available.
Rainfall in
Snow Depth Not available.
UV 0 out of 12
Pollen Not available.
Air Quality Not available.
Flu Activity Sporadic
METAR PAOM 301153Z 32006KT 10SM OVC070 09/06 A3018 RMK SLP220 T00940061 10128 20089 50002 VIA AUTODIAL

More Conditions Fewer Conditions

Pressure 30.18 in
Visibility 10.0 miles
Clouds Overcast 7000 ft
Windchill 45 °F
Dew Point Not available.
Humidity Not available.
Rainfall in
Snow Depth Not available.
UV 0 out of 12
Pollen Not available.
Air Quality Not available.
Flu Activity Sporadic
METAR PAOM 301153Z 32006KT 10SM OVC070 09/06 A3018 RMK SLP220 T00940061 10128 20089 50002 VIA AUTODIAL

More Conditions Fewer Conditions

10-Day Weather Forecast

Almanac

Astronomy

May. 30, 2015 Rise Set
Actual Time
Civil Twilight
Nautical Twilight
Astronomical Twilight
Moon
Length of Visible Light
Length of Day
Tomorrow will be .
, % of the Moon is Illuminated

Today's Extremes

State Highs State Lows

Community

WunderPhotos

Upload Photos

1,825,498 photos uploaded!

WunderBlogs® & News

Nearby

Air Quality

  Air Quality AQ Index Pollutant
Not available.

Snow Depth

Station Depth Elevation

Earthquake Activity

City Distance Mag. Time & Date
Minimum magnitude displayed is 2.5.

Coastal Water Temperatures

Place Temperature

Stations

Nearby Weather Stations

Station Location Temp. Windchill Dew Point Humidity Wind Precip. Elev Updated Type